METARs

EEEI - Ämari Air Base

EEEI 171750Z 28004KT CAVOK M01/M02 Q1020 R24/190095 NOSIG

EEKA - Kärdla

EEKA 171550Z 27006KT 220V330 CAVOK 01/M00 Q1020

EEKE - Kuressaare

EEKE 172250Z AUTO 25003KT 9999NDV FEW004 M03/M03 Q1022

EEPU - Pärnu

EEPU 171350Z 29008KT CAVOK 03/M02 Q1017

EETN - Lennart Meri Tallinn

EETN 172250Z 02003KT CAVOK M03/M04 Q1021 R08/19//95

EETU - Tartu

EETU 172250Z 30006KT CAVOK M02/M05 Q1021

Sign In

ATC Booking

currently no ATC Bookings...